createdAt,value
2022-08-30T00:01:43.232Z,15.20
2022-08-30T00:07:50.382Z,15.10
2022-08-30T00:13:57.738Z,14.90
2022-08-30T00:20:04.780Z,14.80
2022-08-30T00:26:12.146Z,14.80
2022-08-30T00:32:19.076Z,14.70
2022-08-30T00:38:26.446Z,14.80
2022-08-30T00:44:33.378Z,14.70
2022-08-30T00:50:40.810Z,14.60
2022-08-30T00:56:49.227Z,14.60
2022-08-30T01:02:56.352Z,14.50
2022-08-30T01:09:03.420Z,14.40
2022-08-30T01:14:17.345Z,14.40
2022-08-30T01:19:27.291Z,14.20
2022-08-30T01:24:19.969Z,14.10
2022-08-30T01:29:17.187Z,14.10
2022-08-30T01:34:10.244Z,14.10
2022-08-30T01:39:03.336Z,14.00
2022-08-30T01:43:59.746Z,14.00
2022-08-30T01:48:56.196Z,14.00
2022-08-30T01:53:48.462Z,13.90
2022-08-30T01:58:41.509Z,13.80
2022-08-30T02:03:35.526Z,13.70
2022-08-30T02:08:27.847Z,13.70
2022-08-30T02:13:21.776Z,13.70
2022-08-30T02:18:13.973Z,13.80
2022-08-30T02:23:07.843Z,13.80
2022-08-30T02:28:00.092Z,13.90
2022-08-30T02:32:52.626Z,13.80
2022-08-30T02:37:44.892Z,13.80
2022-08-30T02:42:37.209Z,13.70
2022-08-30T02:47:29.462Z,13.70
2022-08-30T02:52:27.655Z,13.70
2022-08-30T02:57:20.539Z,13.70
2022-08-30T03:02:12.969Z,13.70
2022-08-30T03:07:08.709Z,13.60
2022-08-30T03:12:01.798Z,13.60
2022-08-30T03:16:54.744Z,13.50
2022-08-30T03:21:47.157Z,13.40
2022-08-30T03:26:42.044Z,13.40
2022-08-30T03:31:37.953Z,13.40
2022-08-30T03:36:46.400Z,13.30
2022-08-30T03:41:38.952Z,13.30
2022-08-30T03:46:34.489Z,13.40
2022-08-30T03:51:29.195Z,13.30
2022-08-30T03:56:21.614Z,13.30
2022-08-30T04:01:13.954Z,13.30
2022-08-30T04:06:06.502Z,13.30
2022-08-30T04:10:59.388Z,13.30
2022-08-30T04:15:51.638Z,13.20
2022-08-30T04:20:44.307Z,13.20
2022-08-30T04:25:37.978Z,13.20
2022-08-30T04:30:30.657Z,13.30
2022-08-30T04:35:23.289Z,13.40
2022-08-30T04:40:16.134Z,13.50
2022-08-30T04:45:12.594Z,13.60
2022-08-30T04:50:06.210Z,13.80
2022-08-30T04:54:58.987Z,14.00
2022-08-30T04:59:51.323Z,14.20
2022-08-30T05:05:03.722Z,14.30
2022-08-30T05:09:56.335Z,14.50
2022-08-30T05:14:48.618Z,14.70
2022-08-30T05:19:41.035Z,14.80
2022-08-30T05:24:41.169Z,14.80
2022-08-30T05:29:38.172Z,14.90
2022-08-30T05:34:31.517Z,14.90
2022-08-30T05:39:23.725Z,15.00
2022-08-30T05:44:16.025Z,15.10
2022-08-30T05:49:08.497Z,15.30
2022-08-30T05:54:01.287Z,15.70
2022-08-30T05:58:56.318Z,16.00
2022-08-30T06:03:49.466Z,16.20
2022-08-30T06:08:43.943Z,17.50
2022-08-30T06:13:36.263Z,17.60
2022-08-30T06:18:29.005Z,20.00
2022-08-30T06:23:21.752Z,24.60
2022-08-30T06:28:14.423Z,28.40
2022-08-30T06:33:06.702Z,31.60
2022-08-30T06:37:59.633Z,32.60
2022-08-30T06:42:52.053Z,34.60
2022-08-30T06:47:45.508Z,36.20
2022-08-30T06:52:39.974Z,37.20
2022-08-30T06:57:32.439Z,37.80
2022-08-30T07:02:25.710Z,39.20
2022-08-30T07:07:18.746Z,40.10
2022-08-30T07:12:12.892Z,40.30
2022-08-30T07:17:26.037Z,40.30
2022-08-30T07:22:20.546Z,41.00
2022-08-30T07:27:13.644Z,40.90
2022-08-30T07:32:06.231Z,41.40
2022-08-30T07:36:58.692Z,41.80
2022-08-30T07:41:51.121Z,41.00
2022-08-30T07:46:44.122Z,41.70
2022-08-30T07:51:37.125Z,42.10
2022-08-30T07:56:29.513Z,42.40
2022-08-30T08:01:24.654Z,42.80
2022-08-30T08:06:19.886Z,43.20
2022-08-30T08:11:18.645Z,42.80
2022-08-30T08:16:11.103Z,43.00
2022-08-30T08:21:04.136Z,42.80
2022-08-30T08:25:57.327Z,42.60
2022-08-30T08:30:50.353Z,42.80
2022-08-30T08:35:43.116Z,42.70
2022-08-30T08:41:04.139Z,43.00
2022-08-30T08:46:07.113Z,43.20
2022-08-30T08:51:21.700Z,43.00
2022-08-30T08:56:17.871Z,42.80
2022-08-30T09:01:15.686Z,39.40
2022-08-30T09:06:22.830Z,34.40
2022-08-30T09:11:26.246Z,31.30
2022-08-30T09:16:52.652Z,29.80
2022-08-30T09:21:47.673Z,29.60
2022-08-30T09:26:45.199Z,28.70
2022-08-30T09:32:01.288Z,28.20
2022-08-30T09:37:02.903Z,32.30
2022-08-30T09:42:18.033Z,36.20
2022-08-30T09:47:29.637Z,37.00
2022-08-30T09:52:34.969Z,34.10
2022-08-30T09:57:46.376Z,36.10
2022-08-30T10:02:39.121Z,35.50
2022-08-30T10:07:59.071Z,37.80
2022-08-30T10:12:56.780Z,39.50
2022-08-30T10:18:04.836Z,41.10
2022-08-30T10:23:14.204Z,41.70
2022-08-30T10:28:31.871Z,41.00
2022-08-30T10:33:42.489Z,36.90
2022-08-30T10:38:48.460Z,34.20
2022-08-30T10:43:55.176Z,33.90
2022-08-30T10:48:48.531Z,32.60
2022-08-30T10:54:02.376Z,36.00
2022-08-30T10:58:55.107Z,36.60
2022-08-30T11:04:25.300Z,34.20
2022-08-30T11:09:38.089Z,34.90
2022-08-30T11:14:31.130Z,35.10
2022-08-30T11:25:09.768Z,34.30
2022-08-30T11:30:26.589Z,31.80
2022-08-30T11:35:48.400Z,31.60
2022-08-30T11:41:06.651Z,31.70
2022-08-30T11:46:28.687Z,33.10
2022-08-30T11:51:33.854Z,32.70
2022-08-30T11:56:46.734Z,31.50
2022-08-30T12:01:42.331Z,30.50
2022-08-30T12:06:46.268Z,29.70
2022-08-30T12:11:38.589Z,28.90
2022-08-30T12:17:04.285Z,28.70
2022-08-30T12:21:59.659Z,28.40
2022-08-30T12:26:53.512Z,27.70
2022-08-30T12:32:03.339Z,27.70
2022-08-30T12:37:12.752Z,27.80
2022-08-30T12:42:26.822Z,27.60
2022-08-30T12:48:19.622Z,27.40
2022-08-30T12:54:27.165Z,27.20
2022-08-30T13:00:35.150Z,26.40
2022-08-30T13:06:42.299Z,26.20
2022-08-30T13:12:49.295Z,26.30
2022-08-30T13:18:59.914Z,26.90
2022-08-30T13:25:06.906Z,27.90
2022-08-30T13:31:14.124Z,28.40
2022-08-30T13:50:19.648Z,27.10
2022-08-30T13:56:29.440Z,27.40
2022-08-30T14:02:45.281Z,27.30
2022-08-30T14:08:56.198Z,26.70
2022-08-30T14:15:09.495Z,26.00
2022-08-30T14:21:16.877Z,25.60
2022-08-30T14:27:29.791Z,25.40
2022-08-30T14:33:39.580Z,25.40
2022-08-30T14:39:46.747Z,25.20
2022-08-30T14:45:08.900Z,25.10
2022-08-30T14:50:02.056Z,25.10
2022-08-30T14:54:59.357Z,25.20
2022-08-30T14:59:53.731Z,25.20
2022-08-30T15:04:46.101Z,25.20
2022-08-30T15:09:44.092Z,25.40
2022-08-30T15:14:36.626Z,25.60
2022-08-30T15:19:31.378Z,25.40
2022-08-30T15:24:29.319Z,25.20
2022-08-30T15:29:23.498Z,24.90
2022-08-30T15:34:18.070Z,24.50
2022-08-30T15:39:12.850Z,24.00
2022-08-30T15:44:06.467Z,23.80
2022-08-30T15:49:03.869Z,23.60
2022-08-30T15:53:57.148Z,23.60
2022-08-30T15:58:49.934Z,23.50
2022-08-30T16:03:46.181Z,23.40
2022-08-30T16:08:38.637Z,23.40
2022-08-30T16:13:32.386Z,23.40
2022-08-30T16:18:24.873Z,23.30
2022-08-30T16:23:18.614Z,23.30
2022-08-30T16:28:11.674Z,23.20
2022-08-30T16:33:04.143Z,23.20
2022-08-30T16:37:58.510Z,23.20
2022-08-30T16:42:51.331Z,23.10
2022-08-30T16:47:43.915Z,23.00
2022-08-30T16:52:38.146Z,22.80
2022-08-30T16:57:31.814Z,22.70
2022-08-30T17:02:24.442Z,22.60
2022-08-30T17:07:21.342Z,22.60
2022-08-30T17:12:15.529Z,22.50
2022-08-30T17:17:08.108Z,22.40
2022-08-30T17:22:00.563Z,22.40
2022-08-30T17:26:54.647Z,22.40
2022-08-30T17:31:51.004Z,22.30
2022-08-30T17:36:43.947Z,22.10
2022-08-30T17:41:36.373Z,21.90
2022-08-30T17:46:29.782Z,21.70
2022-08-30T17:51:23.236Z,21.60
2022-08-30T17:56:18.204Z,21.40
2022-08-30T18:01:14.431Z,21.20
2022-08-30T18:06:07.322Z,21.00
2022-08-30T18:10:59.831Z,20.80
2022-08-30T18:15:52.505Z,20.70
2022-08-30T18:20:45.324Z,20.60
2022-08-30T18:25:38.157Z,20.40
2022-08-30T18:30:34.714Z,20.40
2022-08-30T18:35:36.408Z,20.20
2022-08-30T18:40:29.279Z,20.10
2022-08-30T18:45:24.225Z,20.00
2022-08-30T18:50:17.251Z,19.80
2022-08-30T18:55:11.203Z,19.70
2022-08-30T19:00:05.417Z,19.70
2022-08-30T19:04:59.105Z,19.60
2022-08-30T19:09:51.544Z,19.50
2022-08-30T19:14:43.910Z,19.30
2022-08-30T19:19:48.524Z,19.20
2022-08-30T19:24:43.518Z,19.10
2022-08-30T19:29:35.955Z,18.90
2022-08-30T19:34:28.445Z,18.90
2022-08-30T19:39:20.828Z,18.80
2022-08-30T19:44:14.970Z,18.70
2022-08-30T19:49:10.644Z,18.70
2022-08-30T19:54:04.298Z,18.60
2022-08-30T19:58:57.218Z,18.50
2022-08-30T20:03:49.821Z,18.50
2022-08-30T20:08:48.173Z,18.50
2022-08-30T20:13:43.803Z,18.50
2022-08-30T20:18:36.832Z,18.50
2022-08-30T20:23:30.372Z,18.40
2022-08-30T20:28:28.224Z,18.40
2022-08-30T20:33:21.209Z,18.30
2022-08-30T20:38:20.765Z,18.30
2022-08-30T20:43:13.898Z,18.20
2022-08-30T20:48:06.797Z,18.10
2022-08-30T20:52:59.269Z,18.10
2022-08-30T20:57:51.584Z,18.00
2022-08-30T21:02:46.973Z,17.90
2022-08-30T21:07:42.067Z,18.00
2022-08-30T21:13:48.918Z,18.00
2022-08-30T21:19:56.534Z,17.90
2022-08-30T21:26:04.121Z,17.70
2022-08-30T21:32:11.448Z,17.70
2022-08-30T21:38:19.829Z,17.50
2022-08-30T21:44:29.712Z,17.30
2022-08-30T21:50:36.627Z,17.20
2022-08-30T21:56:45.378Z,17.20
2022-08-30T22:02:53.150Z,17.10
2022-08-30T22:09:00.613Z,16.90
2022-08-30T22:15:08.159Z,16.90
2022-08-30T22:21:16.313Z,16.80
2022-08-30T22:27:23.762Z,16.80
2022-08-30T22:33:30.679Z,16.60
2022-08-30T22:39:38.105Z,16.60
2022-08-30T22:45:45.327Z,16.50
2022-08-30T22:51:53.902Z,16.50
2022-08-30T22:58:01.148Z,16.40
2022-08-30T23:04:08.815Z,16.30
2022-08-30T23:09:19.850Z,16.20
2022-08-30T23:14:12.658Z,16.10
2022-08-30T23:19:06.118Z,16.10
2022-08-30T23:24:17.702Z,16.00
2022-08-30T23:29:29.530Z,15.90
2022-08-30T23:34:40.755Z,15.90
2022-08-30T23:39:51.575Z,15.90
2022-08-30T23:45:02.373Z,15.80
2022-08-30T23:50:13.769Z,15.80
2022-08-30T23:55:25.310Z,15.70
